createdAt,value
2019-03-15T00:04:19.905Z,5.20
2019-03-15T00:09:06.867Z,5.20
2019-03-15T00:13:51.464Z,5.20
2019-03-15T00:18:36.154Z,5.20
2019-03-15T00:23:20.832Z,5.20
2019-03-15T00:28:05.436Z,5.20
2019-03-15T00:32:50.405Z,5.10
2019-03-15T00:37:35.407Z,5.10
2019-03-15T00:42:19.976Z,5.10
2019-03-15T00:47:04.775Z,5.10
2019-03-15T00:51:49.509Z,5.10
2019-03-15T00:56:34.064Z,5.10
2019-03-15T01:01:18.677Z,4.90
2019-03-15T01:06:03.274Z,4.70
2019-03-15T01:10:48.072Z,4.60
2019-03-15T01:15:32.873Z,4.80
2019-03-15T01:20:17.367Z,4.80
2019-03-15T01:25:02.031Z,4.80
2019-03-15T01:29:46.599Z,4.80
2019-03-15T01:34:31.234Z,4.80
2019-03-15T01:39:15.824Z,4.80
2019-03-15T01:44:00.690Z,4.90
2019-03-15T01:48:45.296Z,4.80
2019-03-15T01:53:29.955Z,4.90
2019-03-15T01:58:14.647Z,4.90
2019-03-15T02:03:02.090Z,4.80
2019-03-15T02:07:45.515Z,4.80
2019-03-15T02:12:30.309Z,4.80
2019-03-15T02:17:14.883Z,4.70
2019-03-15T02:21:59.550Z,4.70
2019-03-15T02:26:44.418Z,4.80
2019-03-15T02:31:29.077Z,4.80
2019-03-15T02:36:14.107Z,4.80
2019-03-15T02:40:58.973Z,4.90
2019-03-15T02:45:43.684Z,4.90
2019-03-15T02:50:29.242Z,4.80
2019-03-15T02:55:13.901Z,4.80
2019-03-15T02:59:58.460Z,4.80
2019-03-15T03:04:43.082Z,4.80
2019-03-15T03:09:27.669Z,4.80
2019-03-15T03:14:12.226Z,4.80
2019-03-15T03:18:57.049Z,4.80
2019-03-15T03:23:41.843Z,4.80
2019-03-15T03:28:27.976Z,4.80
2019-03-15T03:33:12.950Z,4.80
2019-03-15T03:37:57.731Z,4.80
2019-03-15T03:42:42.323Z,4.90
2019-03-15T03:47:26.915Z,4.80
2019-03-15T03:52:11.624Z,4.70
2019-03-15T03:56:56.546Z,4.80
2019-03-15T04:01:41.100Z,4.80
2019-03-15T04:06:25.714Z,4.80
2019-03-15T04:11:10.240Z,4.90
2019-03-15T04:15:54.802Z,4.90
2019-03-15T04:20:39.341Z,5.00
2019-03-15T04:25:23.884Z,5.00
2019-03-15T04:30:09.201Z,5.00
2019-03-15T04:34:53.960Z,5.00
2019-03-15T04:39:38.575Z,4.90
2019-03-15T04:44:23.230Z,4.80
2019-03-15T04:49:08.024Z,4.70
2019-03-15T04:53:52.544Z,4.80
2019-03-15T04:58:37.186Z,4.80
2019-03-15T05:03:21.788Z,4.90
2019-03-15T05:08:06.419Z,4.90
2019-03-15T05:12:51.006Z,5.00
2019-03-15T05:17:35.736Z,5.10
2019-03-15T05:22:20.254Z,5.20
2019-03-15T05:27:04.784Z,5.20
2019-03-15T05:31:49.290Z,5.20
2019-03-15T05:36:34.108Z,5.20
2019-03-15T05:41:18.910Z,5.20
2019-03-15T05:46:03.468Z,5.20
2019-03-15T05:50:48.174Z,5.10
2019-03-15T05:55:32.687Z,5.00
2019-03-15T06:00:17.539Z,5.00
2019-03-15T06:05:02.073Z,5.00
2019-03-15T06:09:46.755Z,5.00
2019-03-15T06:14:31.539Z,4.90
2019-03-15T06:19:16.210Z,5.00
2019-03-15T06:24:00.731Z,5.10
2019-03-15T06:28:45.511Z,5.20
2019-03-15T06:33:29.997Z,5.50
2019-03-15T06:38:14.740Z,5.50
2019-03-15T06:42:59.354Z,5.50
2019-03-15T06:47:43.957Z,5.60
2019-03-15T06:52:28.583Z,5.80
2019-03-15T06:57:13.230Z,6.00
2019-03-15T07:01:57.763Z,6.10
2019-03-15T07:06:42.887Z,6.30
2019-03-15T07:11:27.425Z,6.30
2019-03-15T07:16:11.999Z,6.30
2019-03-15T07:20:56.571Z,6.40
2019-03-15T07:25:41.107Z,6.50
2019-03-15T07:30:25.595Z,6.50
2019-03-15T07:35:10.081Z,6.50
2019-03-15T07:39:54.801Z,6.50
2019-03-15T07:44:39.432Z,6.70
2019-03-15T07:49:24.118Z,6.80
2019-03-15T07:54:08.795Z,7.00
2019-03-15T07:58:53.349Z,7.30
2019-03-15T08:03:37.914Z,7.30
2019-03-15T08:08:22.575Z,7.40
2019-03-15T08:13:07.200Z,7.20
2019-03-15T08:17:51.806Z,7.20
2019-03-15T08:22:36.317Z,7.40
2019-03-15T08:27:21.299Z,7.60
2019-03-15T08:32:06.462Z,7.90
2019-03-15T08:36:51.151Z,7.80
2019-03-15T08:41:35.708Z,7.90
2019-03-15T08:46:20.245Z,7.90
2019-03-15T08:51:04.836Z,8.20
2019-03-15T08:55:49.393Z,8.30
2019-03-15T09:00:33.950Z,8.30
2019-03-15T09:05:18.456Z,8.30
2019-03-15T09:10:03.627Z,8.40
2019-03-15T09:14:48.755Z,8.50
2019-03-15T09:19:33.286Z,8.70
2019-03-15T09:24:18.156Z,9.10
2019-03-15T09:29:02.749Z,9.10
2019-03-15T09:33:47.366Z,8.80
2019-03-15T09:38:31.942Z,8.90
2019-03-15T09:43:16.504Z,9.10
2019-03-15T09:48:01.139Z,9.00
2019-03-15T09:52:46.010Z,9.10
2019-03-15T09:57:30.543Z,8.90
2019-03-15T10:02:15.186Z,9.00
2019-03-15T10:06:59.678Z,9.30
2019-03-15T10:11:44.257Z,9.40
2019-03-15T10:16:29.051Z,9.40
2019-03-15T10:21:13.630Z,9.30
2019-03-15T10:25:58.433Z,9.40
2019-03-15T10:30:42.861Z,9.50
2019-03-15T10:35:27.567Z,9.70
2019-03-15T10:40:14.077Z,9.70
2019-03-15T10:44:58.750Z,9.70
2019-03-15T10:49:43.341Z,10.10
2019-03-15T10:54:27.829Z,10.00
2019-03-15T10:59:12.516Z,9.80
2019-03-15T11:03:57.032Z,9.60
2019-03-15T11:08:43.231Z,9.30
2019-03-15T11:13:27.704Z,9.30
2019-03-15T11:18:12.249Z,9.50
2019-03-15T11:22:57.051Z,9.80
2019-03-15T11:27:41.692Z,10.10
2019-03-15T11:32:26.225Z,10.10
2019-03-15T11:37:10.833Z,10.40
2019-03-15T11:41:55.475Z,10.30
2019-03-15T11:46:40.058Z,10.40
2019-03-15T11:51:24.671Z,10.10
2019-03-15T11:56:09.217Z,10.10
2019-03-15T12:00:53.919Z,9.60
2019-03-15T12:05:38.375Z,9.30
2019-03-15T12:10:22.970Z,9.30
2019-03-15T12:15:08.857Z,9.50
2019-03-15T12:19:53.490Z,9.40
2019-03-15T12:24:38.059Z,9.60
2019-03-15T12:29:22.595Z,9.60
2019-03-15T12:34:07.220Z,9.30
2019-03-15T12:38:51.797Z,9.50
2019-03-15T12:43:36.421Z,9.00
2019-03-15T12:48:21.039Z,8.80
2019-03-15T12:53:05.704Z,8.80
2019-03-15T12:57:50.313Z,8.80
2019-03-15T13:02:34.877Z,8.90
2019-03-15T13:07:19.429Z,8.80
2019-03-15T13:12:03.980Z,9.10
2019-03-15T13:16:48.653Z,8.90
2019-03-15T13:21:33.190Z,8.80
2019-03-15T13:26:17.809Z,8.80
2019-03-15T13:31:02.396Z,8.90
2019-03-15T13:35:46.973Z,9.00
2019-03-15T13:40:31.649Z,8.80
2019-03-15T13:45:18.680Z,8.80
2019-03-15T13:50:04.195Z,8.80
2019-03-15T13:54:48.767Z,9.00
2019-03-15T13:59:33.439Z,9.00
2019-03-15T14:04:18.032Z,8.80
2019-03-15T14:09:02.866Z,8.50
2019-03-15T14:13:47.470Z,8.40
2019-03-15T14:18:32.172Z,8.50
2019-03-15T14:23:16.887Z,8.40
2019-03-15T14:28:01.508Z,8.30
2019-03-15T14:32:46.159Z,8.30
2019-03-15T14:37:30.700Z,8.30
2019-03-15T14:42:15.731Z,8.20
2019-03-15T14:47:00.333Z,8.00
2019-03-15T14:51:44.980Z,7.90
2019-03-15T14:56:29.528Z,7.80
2019-03-15T15:01:14.242Z,7.90
2019-03-15T15:05:58.978Z,7.80
2019-03-15T15:10:46.226Z,7.80
2019-03-15T15:15:30.919Z,7.80
2019-03-15T15:20:15.542Z,7.60
2019-03-15T15:25:00.419Z,7.60
2019-03-15T15:29:45.121Z,7.70
2019-03-15T15:34:29.634Z,7.90
2019-03-15T15:39:14.161Z,8.00
2019-03-15T15:43:58.705Z,8.10
2019-03-15T15:48:43.395Z,8.10
2019-03-15T15:53:28.090Z,8.20
2019-03-15T15:58:17.977Z,8.30
2019-03-15T16:02:59.130Z,8.40
2019-03-15T16:07:43.765Z,8.50
2019-03-15T16:12:28.469Z,8.70
2019-03-15T16:17:13.216Z,8.80
2019-03-15T16:21:57.714Z,8.90
2019-03-15T16:26:42.447Z,8.90
2019-03-15T16:31:27.126Z,9.00
2019-03-15T16:36:11.895Z,9.00
2019-03-15T16:40:56.521Z,9.10
2019-03-15T16:45:41.290Z,9.00
2019-03-15T16:50:25.890Z,9.00
2019-03-15T16:55:10.924Z,9.10
2019-03-15T16:59:55.596Z,9.10
2019-03-15T17:04:40.156Z,9.10
2019-03-15T17:09:24.729Z,9.10
2019-03-15T17:14:09.254Z,9.10
2019-03-15T17:18:53.995Z,9.20
2019-03-15T17:23:38.423Z,9.30
2019-03-15T17:28:23.028Z,9.30
2019-03-15T17:33:07.610Z,9.40
2019-03-15T17:37:52.108Z,9.40
2019-03-15T17:42:37.108Z,9.50
2019-03-15T17:47:21.771Z,9.60
2019-03-15T17:52:06.347Z,9.70
2019-03-15T17:56:50.942Z,9.70
2019-03-15T18:01:36.044Z,9.80
2019-03-15T18:06:20.657Z,9.80
2019-03-15T18:11:05.355Z,9.90
2019-03-15T18:15:50.294Z,10.20
2019-03-15T18:20:35.000Z,10.20
2019-03-15T18:25:19.759Z,10.00
2019-03-15T18:30:05.419Z,9.90
2019-03-15T18:34:50.203Z,9.70
2019-03-15T18:39:34.937Z,9.50
2019-03-15T18:44:20.062Z,7.90
2019-03-15T18:49:04.689Z,7.30
2019-03-15T18:53:49.379Z,7.10
2019-03-15T18:58:34.049Z,7.00
2019-03-15T19:03:18.754Z,7.00
2019-03-15T19:08:03.389Z,7.00
2019-03-15T19:12:48.104Z,7.00
2019-03-15T19:17:32.729Z,7.00
2019-03-15T19:22:17.615Z,7.00
2019-03-15T19:27:02.300Z,7.00
2019-03-15T19:31:47.026Z,7.00
2019-03-15T19:36:31.605Z,7.20
2019-03-15T19:41:16.490Z,7.20
2019-03-15T19:46:11.572Z,7.40
2019-03-15T19:50:56.380Z,7.50
2019-03-15T19:55:41.077Z,7.60
2019-03-15T20:00:25.641Z,7.70
2019-03-15T20:05:10.320Z,7.80
2019-03-15T20:09:55.041Z,7.90
2019-03-15T20:14:39.560Z,7.90
2019-03-15T20:19:24.222Z,8.00
2019-03-15T20:24:09.168Z,7.80
2019-03-15T20:28:53.911Z,7.60
2019-03-15T20:33:38.920Z,7.40
2019-03-15T20:38:23.910Z,7.40
2019-03-15T20:43:09.029Z,7.30
2019-03-15T20:47:53.971Z,7.30
2019-03-15T20:52:38.659Z,7.30
2019-03-15T20:57:23.427Z,7.30
2019-03-15T21:02:08.256Z,7.30
2019-03-15T21:06:52.865Z,7.40
2019-03-15T21:11:37.639Z,7.40
2019-03-15T21:16:22.349Z,7.40
2019-03-15T21:21:07.068Z,7.30
2019-03-15T21:25:52.107Z,7.30
2019-03-15T21:30:47.755Z,7.30
2019-03-15T21:35:25.440Z,7.30
2019-03-15T21:40:11.104Z,7.40
2019-03-15T21:44:55.906Z,7.40
2019-03-15T21:49:40.542Z,7.40
2019-03-15T21:54:25.084Z,7.40
2019-03-15T21:59:09.821Z,7.40
2019-03-15T22:03:56.756Z,7.40
2019-03-15T22:08:44.305Z,7.30
2019-03-15T22:13:31.692Z,7.10
2019-03-15T22:18:17.631Z,6.90
2019-03-15T22:23:02.680Z,7.00
2019-03-15T22:27:50.163Z,6.80
2019-03-15T22:32:33.843Z,6.70
2019-03-15T22:37:18.508Z,6.70
2019-03-15T22:42:06.371Z,6.60
2019-03-15T22:46:50.827Z,6.60
2019-03-15T22:51:35.563Z,6.50
2019-03-15T22:56:20.152Z,6.60
2019-03-15T23:01:04.970Z,6.60
2019-03-15T23:05:49.549Z,6.50
2019-03-15T23:10:34.183Z,6.50
2019-03-15T23:15:18.760Z,6.50
2019-03-15T23:20:03.262Z,6.30
2019-03-15T23:24:47.885Z,6.30
2019-03-15T23:29:32.473Z,6.30
2019-03-15T23:34:17.027Z,6.20
2019-03-15T23:39:01.675Z,6.20
2019-03-15T23:43:46.350Z,6.10
2019-03-15T23:48:30.977Z,6.20
2019-03-15T23:53:15.458Z,6.10
2019-03-15T23:58:00.178Z,6.10
